Weather at Skiros Airport

Public forecast

Using degrees Celsius for public forecast. Weather courtesy of forecast.io.

Current aviation weather report (METAR) for Skiros Airport

Report is more than 2 hours old.

Retrieved 2021/04/12 20:50 UTC (2 hours ago):

LGSY 122050Z 00000KT CAVOK 14/10 Q1020 RMK SCT180 BLU

Closest aviation forecast (TAF) to Skiros Airport

Forecast is more than 12 hours old.

Closest forecast is Skiathos Island National Airport, 47.5 nm (88.0 km) WNW. Retrieved 2012/09/27 00:18 UTC (9 years ago):

TAF LGSK 272300Z 2800/2909 01010KT 9999 FEW020